createdAt,value
2018-08-30T00:02:21.798Z,56.13
2018-08-30T00:04:48.449Z,48.28
2018-08-30T00:07:15.141Z,49.23
2018-08-30T00:09:41.845Z,46.33
2018-08-30T00:12:08.466Z,46.42
2018-08-30T00:14:35.732Z,46.85
2018-08-30T00:17:03.074Z,44.65
2018-08-30T00:19:29.757Z,44.98
2018-08-30T00:21:56.737Z,45.25
2018-08-30T00:24:23.516Z,47.75
2018-08-30T00:26:50.161Z,44.53
2018-08-30T00:29:17.004Z,43.85
2018-08-30T00:31:43.810Z,43.50
2018-08-30T00:34:10.508Z,46.65
2018-08-30T00:36:37.702Z,45.55
2018-08-30T00:39:04.906Z,42.23
2018-08-30T00:41:31.897Z,43.45
2018-08-30T00:43:58.872Z,40.88
2018-08-30T00:46:25.658Z,41.13
2018-08-30T00:48:52.521Z,42.43
2018-08-30T00:51:19.370Z,43.50
2018-08-30T00:53:46.165Z,46.85
2018-08-30T00:56:12.821Z,45.20
2018-08-30T00:58:39.689Z,45.58
2018-08-30T01:01:06.467Z,45.85
2018-08-30T01:03:33.365Z,48.13
2018-08-30T01:06:00.421Z,45.35
2018-08-30T01:08:27.091Z,43.10
2018-08-30T01:10:53.793Z,43.85
2018-08-30T01:13:20.495Z,42.62
2018-08-30T01:15:47.519Z,43.60
2018-08-30T01:18:14.165Z,43.17
2018-08-30T01:20:41.069Z,44.48
2018-08-30T01:23:07.750Z,40.05
2018-08-30T01:25:34.709Z,38.80
2018-08-30T01:28:01.598Z,38.67
2018-08-30T01:30:28.644Z,39.38
2018-08-30T01:32:55.501Z,37.40
2018-08-30T01:35:22.190Z,41.05
2018-08-30T01:37:49.020Z,40.88
2018-08-30T01:40:15.844Z,39.40
2018-08-30T01:42:42.501Z,38.88
2018-08-30T01:45:09.201Z,39.30
2018-08-30T01:47:35.850Z,39.48
2018-08-30T01:50:02.781Z,36.08
2018-08-30T01:52:29.618Z,35.98
2018-08-30T01:54:56.286Z,36.58
2018-08-30T01:57:23.030Z,39.35
2018-08-30T01:59:49.685Z,37.63
2018-08-30T02:02:16.553Z,37.73
2018-08-30T02:04:43.328Z,37.60
2018-08-30T02:07:10.405Z,37.70
2018-08-30T02:09:37.121Z,33.48
2018-08-30T02:12:03.770Z,37.23
2018-08-30T02:14:30.583Z,34.75
2018-08-30T02:16:57.262Z,35.92
2018-08-30T02:19:24.897Z,34.98
2018-08-30T02:21:51.545Z,35.00
2018-08-30T02:24:18.261Z,33.88
2018-08-30T02:26:44.942Z,35.20
2018-08-30T02:29:11.737Z,33.42
2018-08-30T02:31:38.544Z,33.58
2018-08-30T02:34:05.246Z,34.95
2018-08-30T02:36:31.885Z,33.50
2018-08-30T02:38:58.560Z,32.67
2018-08-30T02:41:25.210Z,33.48
2018-08-30T02:43:52.541Z,33.92
2018-08-30T02:46:19.201Z,31.95
2018-08-30T02:48:45.833Z,31.40
2018-08-30T02:51:12.522Z,31.55
2018-08-30T02:53:39.173Z,32.03
2018-08-30T02:56:06.103Z,29.23
2018-08-30T02:58:32.756Z,29.65
2018-08-30T03:00:59.417Z,30.65
2018-08-30T03:03:26.326Z,28.02
2018-08-30T03:05:54.109Z,30.43
2018-08-30T03:08:21.238Z,29.25
2018-08-30T03:10:48.102Z,28.12
2018-08-30T03:13:15.149Z,30.37
2018-08-30T03:15:41.860Z,26.87
2018-08-30T03:18:08.525Z,29.82
2018-08-30T03:20:35.186Z,28.77
2018-08-30T03:23:02.194Z,29.90
2018-08-30T03:25:28.925Z,29.52
2018-08-30T03:27:55.604Z,28.95
2018-08-30T03:30:22.599Z,29.42
2018-08-30T03:32:49.149Z,28.17
2018-08-30T03:35:15.825Z,28.12
2018-08-30T03:37:42.453Z,26.97
2018-08-30T03:40:09.146Z,25.57
2018-08-30T03:42:35.805Z,26.85
2018-08-30T03:45:02.533Z,27.17
2018-08-30T03:47:29.245Z,25.23
2018-08-30T03:49:55.886Z,26.68
2018-08-30T03:52:22.517Z,26.27
2018-08-30T03:54:49.201Z,28.32
2018-08-30T03:57:15.880Z,27.32
2018-08-30T03:59:42.598Z,28.07
2018-08-30T04:02:11.032Z,28.30
2018-08-30T04:04:37.697Z,29.05
2018-08-30T04:07:04.609Z,28.27
2018-08-30T04:09:31.414Z,29.98
2018-08-30T04:11:58.077Z,27.90
2018-08-30T04:14:25.830Z,28.32
2018-08-30T04:16:52.525Z,29.20
2018-08-30T04:19:19.242Z,29.15
2018-08-30T04:21:46.011Z,31.80
2018-08-30T04:24:13.221Z,32.75
2018-08-30T04:26:40.386Z,33.67
2018-08-30T04:29:08.247Z,35.00
2018-08-30T04:31:35.790Z,34.08
2018-08-30T04:34:02.503Z,30.08
2018-08-30T04:36:29.208Z,31.80
2018-08-30T04:38:56.874Z,30.25
2018-08-30T04:41:23.537Z,31.60
2018-08-30T04:43:50.202Z,31.85
2018-08-30T04:46:17.090Z,30.97
2018-08-30T04:48:43.749Z,30.72
2018-08-30T04:51:10.473Z,32.60
2018-08-30T04:53:37.631Z,33.67
2018-08-30T04:56:04.334Z,33.28
2018-08-30T04:58:31.826Z,32.88
2018-08-30T05:00:59.312Z,32.75
2018-08-30T05:03:26.005Z,41.88
2018-08-30T05:05:53.906Z,38.85
2018-08-30T05:08:20.837Z,38.05
2018-08-30T05:10:47.592Z,38.85
2018-08-30T05:13:14.257Z,42.33
2018-08-30T05:15:41.065Z,42.98
2018-08-30T05:18:07.713Z,43.85
2018-08-30T05:20:35.118Z,44.50
2018-08-30T05:23:01.928Z,40.65
2018-08-30T05:25:28.555Z,41.98
2018-08-30T05:27:55.430Z,40.58
2018-08-30T05:30:22.935Z,42.75
2018-08-30T05:32:49.582Z,44.63
2018-08-30T05:35:16.322Z,46.18
2018-08-30T05:37:43.250Z,40.10
2018-08-30T05:40:10.162Z,43.87
2018-08-30T05:42:36.820Z,43.78
2018-08-30T05:45:03.491Z,45.50
2018-08-30T05:47:30.525Z,44.55
2018-08-30T05:49:57.417Z,43.92
2018-08-30T05:52:24.078Z,43.78
2018-08-30T05:54:50.822Z,44.00
2018-08-30T05:57:17.653Z,44.85
2018-08-30T05:59:44.432Z,42.38
2018-08-30T06:02:11.321Z,43.48
2018-08-30T06:04:37.988Z,41.92
2018-08-30T06:07:04.842Z,44.80
2018-08-30T06:09:31.498Z,43.55
2018-08-30T06:11:58.145Z,43.55
2018-08-30T06:14:24.970Z,41.98
2018-08-30T06:16:51.841Z,45.55
2018-08-30T06:19:18.573Z,43.33
2018-08-30T06:21:45.262Z,43.65
2018-08-30T06:24:12.121Z,39.92
2018-08-30T06:26:38.837Z,42.65
2018-08-30T06:29:06.073Z,44.48
2018-08-30T06:31:32.870Z,43.08
2018-08-30T06:33:59.529Z,42.35
2018-08-30T06:36:26.350Z,44.67
2018-08-30T06:38:53.154Z,43.10
2018-08-30T06:41:20.018Z,42.58
2018-08-30T06:43:46.782Z,44.18
2018-08-30T06:46:13.409Z,44.10
2018-08-30T06:48:40.510Z,40.65
2018-08-30T06:51:07.334Z,42.60
2018-08-30T06:53:34.117Z,44.98
2018-08-30T06:56:00.978Z,43.40
2018-08-30T06:58:27.894Z,42.93
2018-08-30T07:00:54.643Z,40.03
2018-08-30T07:03:21.491Z,38.25
2018-08-30T07:05:48.277Z,42.08
2018-08-30T07:08:15.217Z,40.28
2018-08-30T07:10:41.796Z,35.83
2018-08-30T07:13:08.452Z,36.28
2018-08-30T07:15:35.370Z,38.75
2018-08-30T07:18:02.052Z,37.65
2018-08-30T07:20:28.723Z,37.55
2018-08-30T07:22:55.574Z,38.33
2018-08-30T07:25:22.398Z,41.18
2018-08-30T07:27:49.233Z,42.17
2018-08-30T07:30:15.950Z,42.08
2018-08-30T07:32:43.902Z,37.58
2018-08-30T07:35:10.964Z,37.08
2018-08-30T07:37:37.655Z,37.42
2018-08-30T07:40:04.382Z,37.85
2018-08-30T07:42:31.242Z,38.70
2018-08-30T07:44:58.031Z,38.38
2018-08-30T07:47:24.705Z,37.05
2018-08-30T07:49:51.394Z,37.85
2018-08-30T07:52:18.148Z,37.88
2018-08-30T07:54:44.923Z,35.85
2018-08-30T07:57:11.818Z,36.38
2018-08-30T07:59:38.572Z,36.55
2018-08-30T08:02:05.227Z,33.13
2018-08-30T08:04:32.010Z,34.23
2018-08-30T08:06:59.010Z,35.98
2018-08-30T08:09:25.881Z,34.08
2018-08-30T08:11:52.650Z,34.92
2018-08-30T08:14:19.633Z,33.35
2018-08-30T08:16:46.406Z,35.28
2018-08-30T08:19:13.128Z,66.80
2018-08-30T08:21:39.974Z,36.65
2018-08-30T08:24:06.658Z,35.75
2018-08-30T08:26:33.450Z,33.50
2018-08-30T08:29:00.263Z,36.05
2018-08-30T08:31:27.044Z,35.55
2018-08-30T08:33:53.725Z,34.92
2018-08-30T08:36:20.462Z,33.50
2018-08-30T08:38:47.502Z,34.40
2018-08-30T08:41:14.287Z,34.80
2018-08-30T08:43:41.046Z,31.85
2018-08-30T08:46:07.890Z,34.90
2018-08-30T08:48:34.763Z,34.03
2018-08-30T08:51:02.104Z,32.83
2018-08-30T08:53:28.891Z,33.33
2018-08-30T08:55:55.837Z,35.03
2018-08-30T08:58:22.666Z,32.95
2018-08-30T09:00:49.498Z,32.13
2018-08-30T09:03:16.158Z,30.10
2018-08-30T09:05:42.870Z,33.92
2018-08-30T09:08:09.549Z,33.00
2018-08-30T09:10:36.333Z,31.35
2018-08-30T09:13:03.709Z,31.90
2018-08-30T09:15:30.536Z,31.37
2018-08-30T09:17:57.314Z,33.33
2018-08-30T09:20:24.181Z,31.10
2018-08-30T09:22:50.918Z,31.55
2018-08-30T09:25:18.124Z,33.18
2018-08-30T09:27:45.174Z,31.42
2018-08-30T09:30:11.840Z,31.60
2018-08-30T09:32:38.569Z,33.08
2018-08-30T09:35:05.686Z,32.60
2018-08-30T09:37:32.371Z,29.12
2018-08-30T09:39:59.195Z,31.85
2018-08-30T09:42:26.308Z,29.75
2018-08-30T09:44:53.059Z,26.75
2018-08-30T09:47:19.722Z,29.00
2018-08-30T09:49:46.439Z,29.18
2018-08-30T09:52:13.045Z,29.82
2018-08-30T09:54:39.817Z,26.87
2018-08-30T09:57:06.768Z,26.60
2018-08-30T09:59:34.776Z,26.15
2018-08-30T10:02:06.261Z,27.05
2018-08-30T10:04:33.000Z,30.08
2018-08-30T10:06:59.688Z,26.60
2018-08-30T10:09:26.419Z,25.00
2018-08-30T10:11:53.392Z,28.35
2018-08-30T10:14:20.127Z,26.30
2018-08-30T10:16:46.939Z,26.90
2018-08-30T10:19:14.001Z,25.05
2018-08-30T10:21:40.782Z,25.50
2018-08-30T10:24:07.567Z,23.60
2018-08-30T10:26:34.458Z,23.45
2018-08-30T10:29:01.348Z,24.55
2018-08-30T10:31:28.056Z,28.20
2018-08-30T10:33:54.799Z,24.37
2018-08-30T10:36:21.492Z,26.02
2018-08-30T10:38:48.154Z,24.92
2018-08-30T10:41:14.977Z,24.40
2018-08-30T10:43:41.700Z,23.60
2018-08-30T10:46:08.934Z,24.32
2018-08-30T10:48:35.728Z,23.65
2018-08-30T10:51:02.873Z,24.25
2018-08-30T10:53:29.751Z,24.12
2018-08-30T10:55:56.537Z,22.35
2018-08-30T10:58:23.784Z,23.02
2018-08-30T11:00:51.276Z,21.93
2018-08-30T11:03:18.161Z,22.35
2018-08-30T11:05:44.959Z,22.67
2018-08-30T11:08:11.702Z,21.85
2018-08-30T11:10:38.605Z,20.90
2018-08-30T11:13:05.523Z,23.55
2018-08-30T11:15:32.294Z,22.67
2018-08-30T11:17:58.951Z,21.12
2018-08-30T11:20:25.609Z,25.15
2018-08-30T11:22:52.449Z,22.37
2018-08-30T11:25:19.164Z,22.45
2018-08-30T11:27:46.113Z,23.02
2018-08-30T11:30:12.838Z,20.05
2018-08-30T11:32:39.819Z,21.25
2018-08-30T11:35:06.638Z,20.37
2018-08-30T11:37:33.321Z,21.25
2018-08-30T11:40:00.217Z,20.75
2018-08-30T11:42:27.095Z,21.55
2018-08-30T11:44:54.814Z,19.87
2018-08-30T11:47:21.815Z,19.10
2018-08-30T11:49:48.608Z,20.10
2018-08-30T11:52:15.548Z,20.35
2018-08-30T11:54:42.702Z,19.82
2018-08-30T11:57:09.429Z,20.00
2018-08-30T11:59:36.305Z,18.42
2018-08-30T12:02:03.013Z,20.37
2018-08-30T12:04:29.827Z,19.48
2018-08-30T12:06:56.547Z,21.95
2018-08-30T12:09:23.391Z,19.32
2018-08-30T12:11:50.922Z,19.87
2018-08-30T12:14:17.609Z,20.00
2018-08-30T12:16:44.487Z,20.12
2018-08-30T12:19:11.394Z,19.98
2018-08-30T12:21:38.287Z,19.05
2018-08-30T12:24:05.260Z,20.12
2018-08-30T12:26:32.109Z,21.35
2018-08-30T12:28:59.410Z,20.08
2018-08-30T12:31:26.184Z,21.25
2018-08-30T12:33:53.152Z,19.82
2018-08-30T12:36:19.998Z,21.25
2018-08-30T12:38:46.623Z,20.05
2018-08-30T12:41:13.437Z,20.43
2018-08-30T12:43:40.427Z,20.02
2018-08-30T12:46:07.207Z,18.87
2018-08-30T12:48:33.999Z,20.50
2018-08-30T12:51:00.961Z,19.37
2018-08-30T12:53:27.745Z,20.17
2018-08-30T12:55:54.943Z,20.70
2018-08-30T12:58:21.948Z,20.15
2018-08-30T13:00:48.616Z,23.62
2018-08-30T13:03:16.131Z,20.30
2018-08-30T13:05:43.849Z,27.42
2018-08-30T13:08:10.656Z,21.50
2018-08-30T13:10:37.530Z,19.12
2018-08-30T13:13:04.412Z,21.12
2018-08-30T13:15:31.412Z,21.20
2018-08-30T13:17:58.031Z,21.62
2018-08-30T13:20:24.738Z,21.37
2018-08-30T13:22:51.533Z,21.55
2018-08-30T13:25:18.590Z,21.87
2018-08-30T13:27:45.143Z,19.73
2018-08-30T13:30:12.167Z,19.77
2018-08-30T13:32:38.861Z,19.55
2018-08-30T13:35:05.700Z,18.30
2018-08-30T13:37:32.554Z,18.82
2018-08-30T13:39:59.656Z,20.10
2018-08-30T13:42:26.397Z,18.73
2018-08-30T13:44:53.494Z,20.20
2018-08-30T13:47:20.884Z,18.65
2018-08-30T13:49:47.434Z,19.02
2018-08-30T13:52:14.162Z,17.90
2018-08-30T13:54:42.240Z,17.87
2018-08-30T13:57:08.946Z,19.00
2018-08-30T13:59:36.351Z,18.85
2018-08-30T14:02:02.597Z,18.87
2018-08-30T14:04:29.521Z,17.85
2018-08-30T14:06:56.309Z,17.60
2018-08-30T14:09:22.907Z,17.07
2018-08-30T14:11:50.784Z,16.57
2018-08-30T14:14:17.385Z,17.10
2018-08-30T14:16:43.864Z,17.65
2018-08-30T14:19:10.854Z,17.17
2018-08-30T14:21:37.475Z,18.73
2018-08-30T14:24:04.254Z,18.85
2018-08-30T14:26:31.004Z,18.82
2018-08-30T14:28:57.691Z,18.30
2018-08-30T14:31:24.473Z,19.92
2018-08-30T14:33:51.179Z,18.27
2018-08-30T14:36:17.903Z,18.20
2018-08-30T14:38:44.761Z,17.62
2018-08-30T14:41:11.883Z,17.20
2018-08-30T14:43:38.487Z,18.50
2018-08-30T14:46:05.412Z,16.73
2018-08-30T14:48:32.200Z,16.52
2018-08-30T14:50:59.026Z,17.50
2018-08-30T14:53:26.167Z,17.37
2018-08-30T14:55:53.065Z,17.55
2018-08-30T14:58:19.841Z,17.52
2018-08-30T15:00:46.729Z,16.70
2018-08-30T15:03:13.394Z,16.57
2018-08-30T15:05:41.608Z,18.02
2018-08-30T15:08:08.457Z,18.60
2018-08-30T15:10:35.152Z,16.27
2018-08-30T15:13:01.927Z,18.80
2018-08-30T15:15:28.760Z,18.20
2018-08-30T15:17:55.504Z,18.25
2018-08-30T15:20:22.509Z,18.12
2018-08-30T15:22:49.280Z,16.25
2018-08-30T15:25:16.128Z,17.35
2018-08-30T15:27:42.942Z,18.52
2018-08-30T15:30:10.175Z,18.52
2018-08-30T15:32:36.984Z,16.85
2018-08-30T15:35:03.834Z,17.75
2018-08-30T15:37:30.623Z,17.50
2018-08-30T15:39:57.684Z,17.65
2018-08-30T15:42:24.505Z,18.12
2018-08-30T15:44:51.271Z,18.05
2018-08-30T15:47:18.247Z,18.07
2018-08-30T15:49:45.102Z,17.02
2018-08-30T15:52:11.807Z,19.45
2018-08-30T15:54:38.540Z,18.40
2018-08-30T15:57:05.595Z,18.98
2018-08-30T15:59:32.329Z,19.00
2018-08-30T16:01:59.194Z,17.27
2018-08-30T16:04:26.882Z,16.10
2018-08-30T16:06:54.363Z,16.60
2018-08-30T16:09:21.137Z,17.17
2018-08-30T16:11:47.923Z,17.45
2018-08-30T16:14:15.545Z,16.73
2018-08-30T16:16:42.408Z,19.35
2018-08-30T16:19:09.232Z,18.15
2018-08-30T16:21:36.014Z,18.55
2018-08-30T16:24:02.849Z,18.98
2018-08-30T16:26:29.593Z,17.95
2018-08-30T16:28:56.396Z,19.73
2018-08-30T16:31:23.286Z,18.30
2018-08-30T16:33:50.107Z,17.05
2018-08-30T16:36:19.813Z,18.00
2018-08-30T16:38:46.620Z,19.25
2018-08-30T16:41:13.374Z,16.82
2018-08-30T16:43:40.141Z,19.12
2018-08-30T16:46:08.230Z,18.20
2018-08-30T16:48:35.163Z,17.65
2018-08-30T16:51:02.008Z,19.07
2018-08-30T16:53:28.884Z,19.02
2018-08-30T16:55:55.680Z,18.77
2018-08-30T16:58:22.530Z,18.45
2018-08-30T17:00:49.478Z,17.73
2018-08-30T17:03:16.193Z,17.48
2018-08-30T17:05:42.939Z,20.55
2018-08-30T17:08:09.729Z,17.70
2018-08-30T17:10:36.638Z,19.45
2018-08-30T17:13:03.414Z,18.02
2018-08-30T17:15:30.235Z,18.50
2018-08-30T17:17:57.841Z,18.45
2018-08-30T17:20:33.937Z,18.27
2018-08-30T17:23:00.990Z,18.12
2018-08-30T17:25:27.990Z,18.07
2018-08-30T17:27:54.462Z,17.45
2018-08-30T17:30:21.462Z,17.70
2018-08-30T17:32:48.316Z,19.32
2018-08-30T17:35:15.668Z,18.45
2018-08-30T17:37:42.551Z,18.60
2018-08-30T17:40:09.490Z,16.95
2018-08-30T17:42:37.095Z,18.00
2018-08-30T17:45:04.421Z,17.48
2018-08-30T17:47:31.267Z,16.32
2018-08-30T17:49:58.119Z,17.67
2018-08-30T17:52:25.048Z,17.10
2018-08-30T17:54:52.180Z,16.75
2018-08-30T17:57:18.969Z,16.52
2018-08-30T17:59:45.962Z,18.00
2018-08-30T18:02:12.996Z,15.45
2018-08-30T18:04:39.994Z,17.52
2018-08-30T18:07:06.897Z,18.75
2018-08-30T18:09:33.601Z,17.27
2018-08-30T18:12:00.607Z,16.93
2018-08-30T18:14:27.335Z,17.70
2018-08-30T18:16:54.685Z,16.95
2018-08-30T18:19:21.687Z,19.87
2018-08-30T18:21:48.532Z,16.65
2018-08-30T18:24:15.498Z,18.37
2018-08-30T18:26:42.383Z,17.55
2018-08-30T18:29:09.124Z,18.27
2018-08-30T18:31:37.357Z,17.70
2018-08-30T18:34:05.199Z,17.62
2018-08-30T18:36:32.545Z,16.87
2018-08-30T18:38:59.363Z,21.97
2018-08-30T18:41:26.150Z,18.65
2018-08-30T18:43:53.018Z,20.35
2018-08-30T18:46:20.114Z,18.87
2018-08-30T18:48:46.952Z,18.80
2018-08-30T18:51:14.432Z,18.82
2018-08-30T18:53:41.870Z,18.25
2018-08-30T18:56:08.789Z,20.43
2018-08-30T18:58:35.659Z,22.65
2018-08-30T19:01:03.924Z,21.48
2018-08-30T19:03:30.871Z,20.27
2018-08-30T19:05:59.575Z,18.77
2018-08-30T19:08:27.044Z,18.50
2018-08-30T19:10:54.964Z,20.97
2018-08-30T19:13:21.893Z,18.80
2018-08-30T19:15:56.342Z,20.40
2018-08-30T19:18:29.432Z,18.27
2018-08-30T19:20:57.306Z,19.98
2018-08-30T19:23:24.550Z,17.73
2018-08-30T19:25:51.324Z,20.45
2018-08-30T19:28:18.302Z,18.27
2018-08-30T19:30:45.497Z,18.40
2018-08-30T19:33:12.674Z,17.10
2018-08-30T19:35:45.429Z,18.70
2018-08-30T19:38:12.983Z,18.65
2018-08-30T19:40:45.560Z,16.73
2018-08-30T19:43:12.525Z,19.65
2018-08-30T19:45:39.340Z,19.57
2018-08-30T19:48:06.162Z,17.65
2018-08-30T19:50:33.789Z,18.25
2018-08-30T19:53:00.579Z,17.90
2018-08-30T19:55:28.450Z,17.55
2018-08-30T19:57:55.366Z,17.52
2018-08-30T20:00:22.665Z,18.80
2018-08-30T20:02:49.716Z,17.20
2018-08-30T20:05:16.509Z,18.98
2018-08-30T20:07:43.364Z,17.98
2018-08-30T20:10:10.075Z,17.25
2018-08-30T20:12:36.863Z,18.62
2018-08-30T20:15:03.701Z,18.55
2018-08-30T20:17:31.123Z,17.42
2018-08-30T20:19:58.051Z,18.07
2018-08-30T20:22:24.940Z,18.17
2018-08-30T20:24:51.819Z,18.98
2018-08-30T20:27:18.638Z,17.77
2018-08-30T20:29:46.183Z,18.12
2018-08-30T20:32:13.005Z,17.55
2018-08-30T20:34:39.890Z,17.35
2018-08-30T20:37:06.837Z,17.35
2018-08-30T20:39:33.673Z,17.87
2018-08-30T20:42:00.431Z,17.60
2018-08-30T20:44:27.142Z,16.25
2018-08-30T20:46:54.115Z,16.93
2018-08-30T20:49:21.132Z,17.73
2018-08-30T20:51:47.896Z,16.60
2018-08-30T20:54:15.219Z,16.48
2018-08-30T20:56:41.984Z,17.42
2018-08-30T20:59:09.227Z,18.42
2018-08-30T21:01:36.442Z,18.82
2018-08-30T21:04:03.134Z,18.15
2018-08-30T21:06:30.555Z,17.02
2018-08-30T21:08:57.223Z,17.23
2018-08-30T21:11:23.972Z,18.02
2018-08-30T21:13:50.752Z,18.67
2018-08-30T21:16:17.566Z,16.77
2018-08-30T21:18:44.884Z,16.80
2018-08-30T21:21:11.597Z,18.52
2018-08-30T21:23:38.391Z,17.27
2018-08-30T21:26:05.401Z,16.80
2018-08-30T21:28:32.140Z,16.25
2018-08-30T21:30:58.974Z,19.02
2018-08-30T21:33:25.750Z,17.75
2018-08-30T21:35:52.600Z,17.62
2018-08-30T21:38:19.413Z,18.55
2018-08-30T21:40:47.226Z,17.40
2018-08-30T21:43:13.988Z,17.82
2018-08-30T21:45:40.794Z,19.37
2018-08-30T21:48:08.556Z,17.52
2018-08-30T21:50:35.880Z,16.37
2018-08-30T21:53:02.617Z,17.82
2018-08-30T21:55:29.343Z,18.42
2018-08-30T21:57:56.085Z,17.57
2018-08-30T22:00:22.858Z,17.73
2018-08-30T22:02:49.518Z,16.95
2018-08-30T22:05:16.207Z,19.42
2018-08-30T22:07:42.934Z,17.92
2018-08-30T22:10:09.717Z,17.82
2018-08-30T22:12:36.586Z,17.40
2018-08-30T22:15:03.424Z,18.90
2018-08-30T22:17:30.097Z,16.77
2018-08-30T22:19:57.522Z,17.02
2018-08-30T22:22:24.222Z,16.95
2018-08-30T22:24:52.017Z,17.60
2018-08-30T22:27:18.747Z,18.65
2018-08-30T22:29:45.501Z,16.70
2018-08-30T22:32:12.174Z,18.48
2018-08-30T22:34:39.446Z,16.90
2018-08-30T22:37:06.143Z,17.60
2018-08-30T22:39:33.606Z,18.25
2018-08-30T22:42:00.345Z,20.02
2018-08-30T22:44:27.031Z,17.32
2018-08-30T22:46:53.801Z,17.40
2018-08-30T22:49:20.493Z,18.55
2018-08-30T22:51:47.117Z,17.10
2018-08-30T22:54:13.867Z,18.25
2018-08-30T22:56:40.619Z,16.27
2018-08-30T22:59:07.309Z,17.98
2018-08-30T23:01:33.983Z,17.00
2018-08-30T23:04:01.198Z,17.85
2018-08-30T23:06:27.855Z,18.32
2018-08-30T23:08:54.502Z,16.67
2018-08-30T23:11:21.965Z,18.73
2018-08-30T23:13:48.830Z,17.25
2018-08-30T23:16:16.606Z,19.17
2018-08-30T23:18:43.410Z,18.30
2018-08-30T23:21:10.158Z,16.80
2018-08-30T23:23:36.876Z,17.27
2018-08-30T23:26:03.690Z,18.02
2018-08-30T23:28:30.378Z,17.32
2018-08-30T23:30:57.057Z,17.50
2018-08-30T23:33:23.746Z,17.32
2018-08-30T23:35:50.435Z,19.42
2018-08-30T23:38:17.150Z,15.88
2018-08-30T23:40:43.848Z,17.77
2018-08-30T23:43:10.528Z,17.15
2018-08-30T23:45:37.315Z,16.95
2018-08-30T23:48:04.050Z,17.40
2018-08-30T23:50:30.718Z,17.00
2018-08-30T23:52:57.394Z,16.10
2018-08-30T23:55:24.062Z,16.87
2018-08-30T23:57:56.302Z,17.92
